Kohat Weather



Kohat's Current Weather

Temprature 40o haze

haze

Rain: 0 %

Min Temprature40o
Max Temprature40o
Humidity23
Wind Speed3.1 m/h
Sun Rise05:05:35
Sun Set19:28:11
Current Time: 26-Jun-2019 15:02:08
Lat/Lon: 33.6, 71.44




Kohat's Geo Location



Kohat's Weather Forecast

Time Overall Temp Min Temp Max Temp Humidity Wind Speed Rain
26-Jun-2019 (Wed)
17:00:00 scattered clouds 38.140 33.550 38.140 25 3.31 m/h 0 %
20:00:00 clear sky 33.790 30.347 33.790 38 0.48 m/h 0 %
23:00:00 clear sky 30.640 28.340 30.640 40 1.99 m/h 0 %
27-Jun-2019 (Thu)
02:00:00 clear sky 28.330 27.179 28.330 42 1.64 m/h 0 %
05:00:00 clear sky 25.265 25.265 25.265 47 0.63 m/h 0 %
08:00:00 clear sky 30.750 30.750 30.750 29 1.54 m/h 0 %
11:00:00 light rain 32.674 32.674 32.674 25 2.47 m/h 56 %
14:00:00 light rain 34.950 34.950 34.950 21 3.23 m/h 6 %
17:00:00 light rain 26.480 26.480 26.480 43 2.7 m/h 150 %
20:00:00 clear sky 28.694 28.694 28.694 36 2.2 m/h 0 %
23:00:00 clear sky 28.035 28.035 28.035 31 2.28 m/h 0 %
28-Jun-2019 (Fri)
02:00:00 clear sky 26.628 26.628 26.628 28 2.02 m/h 0 %
05:00:00 light rain 24.828 24.828 24.828 36 0.81 m/h 13 %
08:00:00 light rain 31.619 31.619 31.619 17 1.55 m/h 6 %
11:00:00 clear sky 35.025 35.025 35.025 13 2.37 m/h 0 %
14:00:00 clear sky 36.631 36.631 36.631 12 3.2 m/h 0 %
17:00:00 clear sky 36.550 36.550 36.550 13 2.48 m/h 0 %
20:00:00 clear sky 31.950 31.950 31.950 26 0.79 m/h 0 %
23:00:00 clear sky 29.972 29.972 29.972 26 1.79 m/h 0 %
29-Jun-2019 (Sat)
02:00:00 clear sky 28.272 28.272 28.272 29 1.48 m/h 0 %
05:00:00 clear sky 26.879 26.879 26.879 30 1.46 m/h 0 %
08:00:00 clear sky 33.347 33.347 33.347 18 1.2 m/h 0 %
11:00:00 clear sky 36.350 36.350 36.350 15 2.61 m/h 0 %
14:00:00 clear sky 38.350 38.350 38.350 13 4.67 m/h 0 %
17:00:00 few clouds 37.791 37.791 37.791 14 1.28 m/h 0 %
20:00:00 few clouds 32.350 32.350 32.350 26 2.05 m/h 0 %
23:00:00 few clouds 30.950 30.950 30.950 23 1.85 m/h 0 %
30-Jun-2019 (Sun)
02:00:00 light rain 28.996 28.996 28.996 27 1.94 m/h 19 %
05:00:00 light rain 27.942 27.942 27.942 28 2.23 m/h 12 %
08:00:00 clear sky 33.202 33.202 33.202 19 1.06 m/h 0 %
11:00:00 clear sky 36.918 36.918 36.918 15 3.05 m/h 0 %
14:00:00 clear sky 38.808 38.808 38.808 13 4.29 m/h 0 %
17:00:00 clear sky 38.750 38.750 38.750 13 2.94 m/h 0 %
20:00:00 clear sky 34.250 34.250 34.250 20 2.02 m/h 0 %
23:00:00 clear sky 31.850 31.850 31.850 23 1.37 m/h 0 %
01-Jul-2019 (Mon)
02:00:00 clear sky 29.650 29.650 29.650 27 0.96 m/h 0 %
05:00:00 clear sky 28.535 28.535 28.535 27 1.26 m/h 0 %
08:00:00 clear sky 34.350 34.350 34.350 18 1.66 m/h 0 %
11:00:00 clear sky 38.050 38.050 38.050 12 2.91 m/h 0 %
14:00:00 clear sky 39.950 39.950 39.950 12 4.56 m/h 0 %

Famous Cities (60)